sensor_id;sensor_type;location;lat;lon;timestamp;P1;durP1;ratioP1;P2;durP2;ratioP2
77004;SDS011;67261;53.132;18.006;2023-07-13T00:02:03;11.90;;;9.60;;
77004;SDS011;67261;53.132;18.006;2023-07-13T00:04:30;13.20;;;9.70;;
77004;SDS011;67261;53.132;18.006;2023-07-13T00:06:57;12.80;;;10.10;;
77004;SDS011;67261;53.132;18.006;2023-07-13T00:09:23;11.20;;;9.40;;
77004;SDS011;67261;53.132;18.006;2023-07-13T00:11:51;12.60;;;9.70;;
77004;SDS011;67261;53.132;18.006;2023-07-13T00:14:25;12.50;;;9.70;;
77004;SDS011;67261;53.132;18.006;2023-07-13T00:16:53;11.40;;;9.20;;
77004;SDS011;67261;53.132;18.006;2023-07-13T00:21:46;11.20;;;8.90;;
77004;SDS011;67261;53.132;18.006;2023-07-13T00:24:14;10.70;;;9.20;;
77004;SDS011;67261;53.132;18.006;2023-07-13T00:26:45;11.40;;;9.40;;
77004;SDS011;67261;53.132;18.006;2023-07-13T00:29:13;11.20;;;9.20;;
77004;SDS011;67261;53.132;18.006;2023-07-13T00:31:40;12.30;;;9.70;;
77004;SDS011;67261;53.132;18.006;2023-07-13T00:34:06;12.10;;;9.00;;
77004;SDS011;67261;53.132;18.006;2023-07-13T00:36:33;11.00;;;9.20;;
77004;SDS011;67261;53.132;18.006;2023-07-13T00:39:00;12.40;;;9.80;;
77004;SDS011;67261;53.132;18.006;2023-07-13T00:41:26;11.10;;;8.90;;
77004;SDS011;67261;53.132;18.006;2023-07-13T00:43:54;10.60;;;8.80;;
77004;SDS011;67261;53.132;18.006;2023-07-13T00:46:25;12.20;;;9.10;;
77004;SDS011;67261;53.132;18.006;2023-07-13T00:48:56;10.50;;;8.90;;
77004;SDS011;67261;53.132;18.006;2023-07-13T00:51:28;11.00;;;9.60;;
77004;SDS011;67261;53.132;18.006;2023-07-13T00:54:00;11.00;;;9.00;;
77004;SDS011;67261;53.132;18.006;2023-07-13T00:56:31;12.00;;;9.10;;
77004;SDS011;67261;53.132;18.006;2023-07-13T00:59:00;12.90;;;10.10;;
77004;SDS011;67261;53.132;18.006;2023-07-13T01:01:29;12.70;;;9.30;;
77004;SDS011;67261;53.132;18.006;2023-07-13T01:03:55;11.70;;;9.50;;
77004;SDS011;67261;53.132;18.006;2023-07-13T01:06:23;12.00;;;9.10;;
77004;SDS011;67261;53.132;18.006;2023-07-13T01:08:49;10.40;;;8.70;;
77004;SDS011;67261;53.132;18.006;2023-07-13T01:11:19;12.30;;;9.50;;
77004;SDS011;67261;53.132;18.006;2023-07-13T01:13:48;11.80;;;9.20;;
77004;SDS011;67261;53.132;18.006;2023-07-13T01:16:19;10.90;;;8.80;;
77004;SDS011;67261;53.132;18.006;2023-07-13T01:18:54;12.80;;;10.10;;
77004;SDS011;67261;53.132;18.006;2023-07-13T01:21:26;11.90;;;8.90;;
77004;SDS011;67261;53.132;18.006;2023-07-13T01:23:53;12.20;;;9.00;;
77004;SDS011;67261;53.132;18.006;2023-07-13T01:26:21;12.60;;;8.90;;
77004;SDS011;67261;53.132;18.006;2023-07-13T01:28:47;11.80;;;9.40;;
77004;SDS011;67261;53.132;18.006;2023-07-13T01:31:14;12.60;;;9.60;;
77004;SDS011;67261;53.132;18.006;2023-07-13T01:33:41;10.70;;;8.50;;
77004;SDS011;67261;53.132;18.006;2023-07-13T01:36:09;11.60;;;9.40;;
77004;SDS011;67261;53.132;18.006;2023-07-13T01:38:37;13.30;;;10.50;;
77004;SDS011;67261;53.132;18.006;2023-07-13T01:41:04;11.80;;;9.40;;
77004;SDS011;67261;53.132;18.006;2023-07-13T01:43:30;12.70;;;8.60;;
77004;SDS011;67261;53.132;18.006;2023-07-13T01:45:59;10.50;;;8.90;;
77004;SDS011;67261;53.132;18.006;2023-07-13T01:48:25;11.80;;;8.90;;
77004;SDS011;67261;53.132;18.006;2023-07-13T01:50:52;12.30;;;8.80;;
77004;SDS011;67261;53.132;18.006;2023-07-13T01:53:18;11.50;;;8.40;;
77004;SDS011;67261;53.132;18.006;2023-07-13T01:55:45;11.30;;;9.10;;
77004;SDS011;67261;53.132;18.006;2023-07-13T01:58:12;10.70;;;8.50;;
77004;SDS011;67261;53.132;18.006;2023-07-13T02:00:39;11.30;;;8.80;;
77004;SDS011;67261;53.132;18.006;2023-07-13T02:03:07;9.80;;;8.50;;
77004;SDS011;67261;53.132;18.006;2023-07-13T02:05:33;9.90;;;8.30;;
77004;SDS011;67261;53.132;18.006;2023-07-13T02:08:00;9.30;;;7.60;;
77004;SDS011;67261;53.132;18.006;2023-07-13T02:10:27;10.20;;;8.10;;
77004;SDS011;67261;53.132;18.006;2023-07-13T02:12:54;9.60;;;7.90;;
77004;SDS011;67261;53.132;18.006;2023-07-13T02:15:21;10.20;;;8.20;;
77004;SDS011;67261;53.132;18.006;2023-07-13T02:17:47;9.10;;;7.90;;
77004;SDS011;67261;53.132;18.006;2023-07-13T02:20:14;11.20;;;9.50;;
77004;SDS011;67261;53.132;18.006;2023-07-13T02:22:43;10.70;;;8.70;;
77004;SDS011;67261;53.132;18.006;2023-07-13T02:25:10;11.40;;;8.90;;
77004;SDS011;67261;53.132;18.006;2023-07-13T02:27:36;9.90;;;8.20;;
77004;SDS011;67261;53.132;18.006;2023-07-13T02:30:03;13.40;;;9.90;;
77004;SDS011;67261;53.132;18.006;2023-07-13T02:34:56;10.80;;;7.90;;
77004;SDS011;67261;53.132;18.006;2023-07-13T02:37:23;10.70;;;8.40;;
77004;SDS011;67261;53.132;18.006;2023-07-13T02:39:50;10.30;;;8.30;;
77004;SDS011;67261;53.132;18.006;2023-07-13T02:42:17;10.20;;;8.50;;
77004;SDS011;67261;53.132;18.006;2023-07-13T02:44:44;9.70;;;8.70;;
77004;SDS011;67261;53.132;18.006;2023-07-13T02:47:12;9.80;;;8.30;;
77004;SDS011;67261;53.132;18.006;2023-07-13T02:49:39;10.10;;;8.50;;
77004;SDS011;67261;53.132;18.006;2023-07-13T02:52:05;10.40;;;8.20;;
77004;SDS011;67261;53.132;18.006;2023-07-13T02:54:32;12.20;;;8.80;;
77004;SDS011;67261;53.132;18.006;2023-07-13T02:57:01;11.40;;;9.30;;
77004;SDS011;67261;53.132;18.006;2023-07-13T02:59:28;11.40;;;8.70;;
77004;SDS011;67261;53.132;18.006;2023-07-13T03:01:55;11.00;;;8.50;;
77004;SDS011;67261;53.132;18.006;2023-07-13T03:04:21;11.80;;;8.90;;
77004;SDS011;67261;53.132;18.006;2023-07-13T03:06:48;10.30;;;8.70;;
77004;SDS011;67261;53.132;18.006;2023-07-13T03:09:15;12.50;;;9.80;;
77004;SDS011;67261;53.132;18.006;2023-07-13T03:11:43;10.60;;;8.70;;
77004;SDS011;67261;53.132;18.006;2023-07-13T03:14:19;10.80;;;9.60;;
77004;SDS011;67261;53.132;18.006;2023-07-13T03:16:50;10.10;;;8.00;;
77004;SDS011;67261;53.132;18.006;2023-07-13T03:19:19;11.20;;;8.20;;
77004;SDS011;67261;53.132;18.006;2023-07-13T03:21:50;11.80;;;7.70;;
77004;SDS011;67261;53.132;18.006;2023-07-13T03:24:17;10.90;;;8.50;;
77004;SDS011;67261;53.132;18.006;2023-07-13T03:26:44;10.70;;;8.70;;
77004;SDS011;67261;53.132;18.006;2023-07-13T03:29:11;9.90;;;8.80;;
77004;SDS011;67261;53.132;18.006;2023-07-13T03:34:06;11.20;;;8.80;;
77004;SDS011;67261;53.132;18.006;2023-07-13T03:36:35;11.40;;;9.00;;
77004;SDS011;67261;53.132;18.006;2023-07-13T03:39:04;9.80;;;8.50;;
77004;SDS011;67261;53.132;18.006;2023-07-13T03:41:48;10.00;;;8.30;;
77004;SDS011;67261;53.132;18.006;2023-07-13T03:44:16;10.80;;;8.10;;
77004;SDS011;67261;53.132;18.006;2023-07-13T03:46:44;10.40;;;8.30;;
77004;SDS011;67261;53.132;18.006;2023-07-13T03:49:13;9.90;;;8.70;;
77004;SDS011;67261;53.132;18.006;2023-07-13T03:51:39;9.10;;;7.40;;
77004;SDS011;67261;53.132;18.006;2023-07-13T03:54:06;9.80;;;8.10;;
77004;SDS011;67261;53.132;18.006;2023-07-13T03:56:33;10.50;;;8.50;;
77004;SDS011;67261;53.132;18.006;2023-07-13T03:59:00;10.20;;;8.30;;
77004;SDS011;67261;53.132;18.006;2023-07-13T04:01:29;10.70;;;8.30;;
77004;SDS011;67261;53.132;18.006;2023-07-13T04:03:55;10.60;;;8.30;;
77004;SDS011;67261;53.132;18.006;2023-07-13T04:06:25;9.80;;;7.80;;
77004;SDS011;67261;53.132;18.006;2023-07-13T04:08:56;12.80;;;8.20;;
77004;SDS011;67261;53.132;18.006;2023-07-13T04:11:26;9.70;;;7.50;;
77004;SDS011;67261;53.132;18.006;2023-07-13T04:13:55;7.60;;;6.80;;
77004;SDS011;67261;53.132;18.006;2023-07-13T04:16:23;10.60;;;7.10;;
77004;SDS011;67261;53.132;18.006;2023-07-13T04:18:50;9.30;;;7.30;;
77004;SDS011;67261;53.132;18.006;2023-07-13T04:21:30;8.90;;;7.20;;
77004;SDS011;67261;53.132;18.006;2023-07-13T04:23:57;9.60;;;7.00;;
77004;SDS011;67261;53.132;18.006;2023-07-13T04:26:24;8.20;;;6.80;;
77004;SDS011;67261;53.132;18.006;2023-07-13T04:28:53;11.70;;;7.50;;
77004;SDS011;67261;53.132;18.006;2023-07-13T04:31:20;8.10;;;6.70;;
77004;SDS011;67261;53.132;18.006;2023-07-13T04:33:48;8.70;;;6.10;;
77004;SDS011;67261;53.132;18.006;2023-07-13T04:36:15;7.00;;;5.70;;
77004;SDS011;67261;53.132;18.006;2023-07-13T04:38:42;7.30;;;5.50;;
77004;SDS011;67261;53.132;18.006;2023-07-13T04:41:09;8.80;;;5.90;;
77004;SDS011;67261;53.132;18.006;2023-07-13T04:43:35;10.30;;;6.30;;
77004;SDS011;67261;53.132;18.006;2023-07-13T04:46:07;7.90;;;5.60;;
77004;SDS011;67261;53.132;18.006;2023-07-13T04:48:35;8.80;;;6.00;;
77004;SDS011;67261;53.132;18.006;2023-07-13T04:51:02;6.50;;;5.00;;
77004;SDS011;67261;53.132;18.006;2023-07-13T04:53:28;7.50;;;6.00;;
77004;SDS011;67261;53.132;18.006;2023-07-13T04:55:56;6.70;;;5.20;;
77004;SDS011;67261;53.132;18.006;2023-07-13T04:58:23;8.30;;;4.90;;
77004;SDS011;67261;53.132;18.006;2023-07-13T05:00:50;7.20;;;4.60;;
77004;SDS011;67261;53.132;18.006;2023-07-13T05:03:17;5.90;;;4.60;;
77004;SDS011;67261;53.132;18.006;2023-07-13T05:05:53;8.00;;;4.70;;
77004;SDS011;67261;53.132;18.006;2023-07-13T05:08:21;7.80;;;4.70;;
77004;SDS011;67261;53.132;18.006;2023-07-13T05:10:48;7.30;;;4.60;;
77004;SDS011;67261;53.132;18.006;2023-07-13T05:13:14;6.10;;;4.20;;
77004;SDS011;67261;53.132;18.006;2023-07-13T05:15:41;6.70;;;4.20;;
77004;SDS011;67261;53.132;18.006;2023-07-13T05:18:07;6.60;;;4.30;;
77004;SDS011;67261;53.132;18.006;2023-07-13T05:20:33;8.10;;;4.70;;
77004;SDS011;67261;53.132;18.006;2023-07-13T05:25:26;7.60;;;4.80;;
77004;SDS011;67261;53.132;18.006;2023-07-13T05:27:52;7.30;;;4.00;;
77004;SDS011;67261;53.132;18.006;2023-07-13T05:32:45;6.80;;;3.50;;
77004;SDS011;67261;53.132;18.006;2023-07-13T05:35:13;6.30;;;3.60;;
77004;SDS011;67261;53.132;18.006;2023-07-13T05:37:39;6.10;;;3.00;;
77004;SDS011;67261;53.132;18.006;2023-07-13T05:40:06;5.90;;;3.00;;
77004;SDS011;67261;53.132;18.006;2023-07-13T05:42:35;4.90;;;2.70;;
77004;SDS011;67261;53.132;18.006;2023-07-13T05:45:02;6.60;;;2.90;;
77004;SDS011;67261;53.132;18.006;2023-07-13T05:47:32;5.60;;;2.60;;
77004;SDS011;67261;53.132;18.006;2023-07-13T05:49:59;5.80;;;2.80;;
77004;SDS011;67261;53.132;18.006;2023-07-13T05:52:25;5.70;;;2.80;;
77004;SDS011;67261;53.132;18.006;2023-07-13T05:54:52;5.00;;;2.10;;
77004;SDS011;67261;53.132;18.006;2023-07-13T05:57:19;5.20;;;2.50;;
77004;SDS011;67261;53.132;18.006;2023-07-13T05:59:46;5.40;;;2.20;;
77004;SDS011;67261;53.132;18.006;2023-07-13T06:02:13;5.70;;;2.30;;
77004;SDS011;67261;53.132;18.006;2023-07-13T06:04:39;5.10;;;2.80;;
77004;SDS011;67261;53.132;18.006;2023-07-13T06:07:06;4.80;;;2.20;;
77004;SDS011;67261;53.132;18.006;2023-07-13T06:09:32;5.50;;;2.40;;
77004;SDS011;67261;53.132;18.006;2023-07-13T06:11:58;5.30;;;2.20;;
77004;SDS011;67261;53.132;18.006;2023-07-13T06:14:24;5.30;;;2.20;;
77004;SDS011;67261;53.132;18.006;2023-07-13T06:16:51;4.90;;;2.70;;
77004;SDS011;67261;53.132;18.006;2023-07-13T06:19:17;6.10;;;2.40;;
77004;SDS011;67261;53.132;18.006;2023-07-13T06:21:44;7.00;;;2.60;;
77004;SDS011;67261;53.132;18.006;2023-07-13T06:24:10;4.50;;;2.20;;
77004;SDS011;67261;53.132;18.006;2023-07-13T06:26:37;5.80;;;2.10;;
77004;SDS011;67261;53.132;18.006;2023-07-13T06:29:04;5.20;;;1.90;;
77004;SDS011;67261;53.132;18.006;2023-07-13T06:31:30;5.50;;;2.80;;
77004;SDS011;67261;53.132;18.006;2023-07-13T06:33:57;4.10;;;2.00;;
77004;SDS011;67261;53.132;18.006;2023-07-13T06:36:23;4.90;;;2.30;;
77004;SDS011;67261;53.132;18.006;2023-07-13T06:38:50;4.60;;;2.30;;
77004;SDS011;67261;53.132;18.006;2023-07-13T06:41:16;4.40;;;2.20;;
77004;SDS011;67261;53.132;18.006;2023-07-13T06:43:43;6.00;;;2.00;;
77004;SDS011;67261;53.132;18.006;2023-07-13T06:46:09;7.00;;;2.20;;
77004;SDS011;67261;53.132;18.006;2023-07-13T06:48:36;4.60;;;2.00;;
77004;SDS011;67261;53.132;18.006;2023-07-13T06:51:02;3.70;;;1.90;;
77004;SDS011;67261;53.132;18.006;2023-07-13T06:53:28;5.50;;;2.00;;
77004;SDS011;67261;53.132;18.006;2023-07-13T06:56:00;5.60;;;2.30;;
77004;SDS011;67261;53.132;18.006;2023-07-13T06:58:28;5.10;;;2.50;;
77004;SDS011;67261;53.132;18.006;2023-07-13T07:00:57;6.20;;;2.60;;
77004;SDS011;67261;53.132;18.006;2023-07-13T07:03:44;4.80;;;2.10;;
77004;SDS011;67261;53.132;18.006;2023-07-13T07:06:23;5.70;;;1.90;;
77004;SDS011;67261;53.132;18.006;2023-07-13T07:08:54;5.30;;;2.10;;
77004;SDS011;67261;53.132;18.006;2023-07-13T07:11:31;4.20;;;1.70;;
77004;SDS011;67261;53.132;18.006;2023-07-13T07:14:23;5.20;;;1.70;;
77004;SDS011;67261;53.132;18.006;2023-07-13T07:17:05;5.50;;;2.10;;
77004;SDS011;67261;53.132;18.006;2023-07-13T07:22:02;5.00;;;2.30;;
77004;SDS011;67261;53.132;18.006;2023-07-13T07:24:29;6.00;;;2.80;;
77004;SDS011;67261;53.132;18.006;2023-07-13T07:27:13;5.90;;;2.10;;
77004;SDS011;67261;53.132;18.006;2023-07-13T07:30:59;4.00;;;2.00;;
77004;SDS011;67261;53.132;18.006;2023-07-13T07:33:46;4.90;;;1.80;;
77004;SDS011;67261;53.132;18.006;2023-07-13T07:36:33;5.90;;;2.30;;
77004;SDS011;67261;53.132;18.006;2023-07-13T07:39:00;7.70;;;2.20;;
77004;SDS011;67261;53.132;18.006;2023-07-13T07:41:27;6.40;;;2.20;;
77004;SDS011;67261;53.132;18.006;2023-07-13T07:43:57;5.30;;;2.00;;
77004;SDS011;67261;53.132;18.006;2023-07-13T07:46:27;5.00;;;2.00;;
77004;SDS011;67261;53.132;18.006;2023-07-13T07:48:57;5.80;;;2.20;;
77004;SDS011;67261;53.132;18.006;2023-07-13T07:52:10;5.10;;;2.40;;
77004;SDS011;67261;53.132;18.006;2023-07-13T07:55:06;5.30;;;2.50;;
77004;SDS011;67261;53.132;18.006;2023-07-13T07:58:05;6.00;;;2.10;;
77004;SDS011;67261;53.132;18.006;2023-07-13T08:00:53;9.10;;;2.40;;
77004;SDS011;67261;53.132;18.006;2023-07-13T08:03:20;5.40;;;2.10;;
77004;SDS011;67261;53.132;18.006;2023-07-13T08:05:52;6.10;;;2.00;;
77004;SDS011;67261;53.132;18.006;2023-07-13T08:08:22;5.10;;;2.20;;
77004;SDS011;67261;53.132;18.006;2023-07-13T08:10:49;6.40;;;1.90;;
77004;SDS011;67261;53.132;18.006;2023-07-13T08:13:16;4.90;;;2.00;;
77004;SDS011;67261;53.132;18.006;2023-07-13T08:15:42;6.00;;;2.10;;
77004;SDS011;67261;53.132;18.006;2023-07-13T08:18:10;5.40;;;2.10;;
77004;SDS011;67261;53.132;18.006;2023-07-13T08:20:41;4.80;;;1.90;;
77004;SDS011;67261;53.132;18.006;2023-07-13T08:23:08;4.50;;;1.80;;
77004;SDS011;67261;53.132;18.006;2023-07-13T08:25:36;6.00;;;1.80;;
77004;SDS011;67261;53.132;18.006;2023-07-13T08:28:10;5.00;;;2.10;;
77004;SDS011;67261;53.132;18.006;2023-07-13T08:30:37;4.10;;;1.60;;
77004;SDS011;67261;53.132;18.006;2023-07-13T08:33:04;5.00;;;1.70;;
77004;SDS011;67261;53.132;18.006;2023-07-13T08:35:33;3.90;;;1.50;;
77004;SDS011;67261;53.132;18.006;2023-07-13T08:38:00;4.90;;;1.70;;
77004;SDS011;67261;53.132;18.006;2023-07-13T08:40:27;4.10;;;1.60;;
77004;SDS011;67261;53.132;18.006;2023-07-13T08:42:55;4.60;;;1.60;;
77004;SDS011;67261;53.132;18.006;2023-07-13T08:45:43;6.80;;;1.60;;
77004;SDS011;67261;53.132;18.006;2023-07-13T08:48:20;4.30;;;1.50;;
77004;SDS011;67261;53.132;18.006;2023-07-13T08:50:57;3.90;;;1.50;;
77004;SDS011;67261;53.132;18.006;2023-07-13T08:53:36;5.70;;;1.60;;
77004;SDS011;67261;53.132;18.006;2023-07-13T08:56:09;5.70;;;1.90;;
77004;SDS011;67261;53.132;18.006;2023-07-13T08:58:42;4.00;;;1.60;;
77004;SDS011;67261;53.132;18.006;2023-07-13T09:06:30;5.40;;;1.60;;
77004;SDS011;67261;53.132;18.006;2023-07-13T09:09:02;5.70;;;1.60;;
77004;SDS011;67261;53.132;18.006;2023-07-13T09:11:55;3.90;;;1.30;;
77004;SDS011;67261;53.132;18.006;2023-07-13T09:14:34;3.90;;;1.60;;
77004;SDS011;67261;53.132;18.006;2023-07-13T09:17:30;3.80;;;1.70;;
77004;SDS011;67261;53.132;18.006;2023-07-13T09:20:09;4.80;;;1.50;;
77004;SDS011;67261;53.132;18.006;2023-07-13T09:30:23;4.50;;;1.80;;
77004;SDS011;67261;53.132;18.006;2023-07-13T09:32:56;4.90;;;1.60;;
77004;SDS011;67261;53.132;18.006;2023-07-13T09:35:28;4.90;;;1.80;;
77004;SDS011;67261;53.132;18.006;2023-07-13T09:38:29;4.40;;;1.50;;
77004;SDS011;67261;53.132;18.006;2023-07-13T09:43:36;4.10;;;1.50;;
77004;SDS011;67261;53.132;18.006;2023-07-13T09:46:19;7.60;;;1.60;;
77004;SDS011;67261;53.132;18.006;2023-07-13T09:48:49;4.60;;;1.90;;
77004;SDS011;67261;53.132;18.006;2023-07-13T09:51:15;5.40;;;1.70;;
77004;SDS011;67261;53.132;18.006;2023-07-13T09:53:42;4.80;;;1.60;;
77004;SDS011;67261;53.132;18.006;2023-07-13T09:56:22;5.40;;;1.80;;
77004;SDS011;67261;53.132;18.006;2023-07-13T09:58:52;5.70;;;1.70;;
77004;SDS011;67261;53.132;18.006;2023-07-13T10:01:32;3.70;;;1.50;;
77004;SDS011;67261;53.132;18.006;2023-07-13T10:04:01;4.60;;;1.50;;
77004;SDS011;67261;53.132;18.006;2023-07-13T10:06:28;5.00;;;2.00;;
77004;SDS011;67261;53.132;18.006;2023-07-13T10:11:29;4.60;;;1.60;;
77004;SDS011;67261;53.132;18.006;2023-07-13T10:14:01;5.90;;;1.70;;
77004;SDS011;67261;53.132;18.006;2023-07-13T10:16:35;4.10;;;1.70;;
77004;SDS011;67261;53.132;18.006;2023-07-13T10:19:03;4.70;;;2.50;;
77004;SDS011;67261;53.132;18.006;2023-07-13T10:21:38;4.20;;;1.70;;
77004;SDS011;67261;53.132;18.006;2023-07-13T10:24:20;4.00;;;1.70;;
77004;SDS011;67261;53.132;18.006;2023-07-13T10:26:55;7.60;;;2.50;;
77004;SDS011;67261;53.132;18.006;2023-07-13T10:29:46;4.30;;;1.70;;
77004;SDS011;67261;53.132;18.006;2023-07-13T10:32:17;4.30;;;1.50;;
77004;SDS011;67261;53.132;18.006;2023-07-13T10:34:51;4.60;;;1.80;;
77004;SDS011;67261;53.132;18.006;2023-07-13T10:37:19;6.00;;;2.00;;
77004;SDS011;67261;53.132;18.006;2023-07-13T10:39:50;5.20;;;1.70;;
77004;SDS011;67261;53.132;18.006;2023-07-13T10:42:25;5.10;;;1.60;;
77004;SDS011;67261;53.132;18.006;2023-07-13T10:45:10;5.00;;;1.60;;
77004;SDS011;67261;53.132;18.006;2023-07-13T10:47:40;3.70;;;1.50;;
77004;SDS011;67261;53.132;18.006;2023-07-13T10:50:08;5.10;;;1.80;;
77004;SDS011;67261;53.132;18.006;2023-07-13T10:52:47;4.00;;;1.50;;
77004;SDS011;67261;53.132;18.006;2023-07-13T10:55:31;4.40;;;1.60;;
77004;SDS011;67261;53.132;18.006;2023-07-13T11:01:15;5.00;;;1.60;;
77004;SDS011;67261;53.132;18.006;2023-07-13T11:06:11;3.60;;;1.40;;
77004;SDS011;67261;53.132;18.006;2023-07-13T11:11:31;4.30;;;1.70;;
77004;SDS011;67261;53.132;18.006;2023-07-13T11:14:04;4.30;;;1.60;;
77004;SDS011;67261;53.132;18.006;2023-07-13T11:16:55;3.60;;;1.50;;
77004;SDS011;67261;53.132;18.006;2023-07-13T11:19:24;4.60;;;1.60;;
77004;SDS011;67261;53.132;18.006;2023-07-13T11:27:51;4.40;;;1.40;;
77004;SDS011;67261;53.132;18.006;2023-07-13T11:35:41;3.40;;;1.60;;
77004;SDS011;67261;53.132;18.006;2023-07-13T11:40:48;6.20;;;1.80;;
77004;SDS011;67261;53.132;18.006;2023-07-13T11:43:18;5.90;;;2.00;;
77004;SDS011;67261;53.132;18.006;2023-07-13T11:48:25;3.80;;;1.50;;
77004;SDS011;67261;53.132;18.006;2023-07-13T11:50:58;4.40;;;1.90;;
77004;SDS011;67261;53.132;18.006;2023-07-13T11:53:39;4.30;;;1.90;;
77004;SDS011;67261;53.132;18.006;2023-07-13T11:56:10;4.40;;;2.10;;
77004;SDS011;67261;53.132;18.006;2023-07-13T11:58:38;5.10;;;2.10;;
77004;SDS011;67261;53.132;18.006;2023-07-13T12:01:05;4.70;;;1.80;;
77004;SDS011;67261;53.132;18.006;2023-07-13T12:03:35;5.60;;;1.80;;
77004;SDS011;67261;53.132;18.006;2023-07-13T12:06:03;5.30;;;2.00;;
77004;SDS011;67261;53.132;18.006;2023-07-13T12:08:38;4.70;;;1.90;;
77004;SDS011;67261;53.132;18.006;2023-07-13T12:11:14;4.70;;;2.20;;
77004;SDS011;67261;53.132;18.006;2023-07-13T12:13:44;5.10;;;2.00;;
77004;SDS011;67261;53.132;18.006;2023-07-13T12:16:15;5.80;;;1.90;;
77004;SDS011;67261;53.132;18.006;2023-07-13T12:18:52;5.80;;;2.50;;
77004;SDS011;67261;53.132;18.006;2023-07-13T12:21:29;5.90;;;2.40;;
77004;SDS011;67261;53.132;18.006;2023-07-13T12:23:58;5.70;;;1.90;;
77004;SDS011;67261;53.132;18.006;2023-07-13T12:26:28;4.30;;;1.90;;
77004;SDS011;67261;53.132;18.006;2023-07-13T12:28:56;5.20;;;2.20;;
77004;SDS011;67261;53.132;18.006;2023-07-13T12:34:07;5.00;;;1.60;;
77004;SDS011;67261;53.132;18.006;2023-07-13T12:36:38;5.60;;;2.20;;
77004;SDS011;67261;53.132;18.006;2023-07-13T12:39:13;4.70;;;2.20;;
77004;SDS011;67261;53.132;18.006;2023-07-13T12:41:40;4.90;;;1.90;;
77004;SDS011;67261;53.132;18.006;2023-07-13T12:44:09;4.20;;;2.20;;
77004;SDS011;67261;53.132;18.006;2023-07-13T12:46:53;4.60;;;1.80;;
77004;SDS011;67261;53.132;18.006;2023-07-13T12:49:23;6.70;;;2.20;;
77004;SDS011;67261;53.132;18.006;2023-07-13T12:51:56;5.50;;;2.10;;
77004;SDS011;67261;53.132;18.006;2023-07-13T12:54:25;6.50;;;2.20;;
77004;SDS011;67261;53.132;18.006;2023-07-13T12:56:53;3.70;;;2.20;;
77004;SDS011;67261;53.132;18.006;2023-07-13T12:59:24;5.80;;;2.00;;
77004;SDS011;67261;53.132;18.006;2023-07-13T13:01:57;6.20;;;2.10;;
77004;SDS011;67261;53.132;18.006;2023-07-13T13:04:25;4.30;;;2.10;;
77004;SDS011;67261;53.132;18.006;2023-07-13T13:07:02;5.00;;;1.90;;
77004;SDS011;67261;53.132;18.006;2023-07-13T13:09:32;5.30;;;2.40;;
77004;SDS011;67261;53.132;18.006;2023-07-13T13:14:25;5.70;;;2.00;;
77004;SDS011;67261;53.132;18.006;2023-07-13T13:19:20;6.20;;;2.10;;
77004;SDS011;67261;53.132;18.006;2023-07-13T13:21:53;5.60;;;2.00;;
77004;SDS011;67261;53.132;18.006;2023-07-13T13:24:24;4.30;;;2.10;;
77004;SDS011;67261;53.132;18.006;2023-07-13T13:26:52;4.70;;;2.20;;
77004;SDS011;67261;53.132;18.006;2023-07-13T13:29:23;5.60;;;2.30;;
77004;SDS011;67261;53.132;18.006;2023-07-13T13:31:51;4.30;;;2.10;;
77004;SDS011;67261;53.132;18.006;2023-07-13T13:34:18;5.70;;;2.40;;
77004;SDS011;67261;53.132;18.006;2023-07-13T13:36:46;5.70;;;2.20;;
77004;SDS011;67261;53.132;18.006;2023-07-13T13:41:49;5.50;;;2.00;;
77004;SDS011;67261;53.132;18.006;2023-07-13T13:44:18;4.20;;;1.90;;
77004;SDS011;67261;53.132;18.006;2023-07-13T13:46:45;5.00;;;2.30;;
77004;SDS011;67261;53.132;18.006;2023-07-13T13:49:19;4.80;;;2.10;;
77004;SDS011;67261;53.132;18.006;2023-07-13T13:51:50;5.70;;;2.20;;
77004;SDS011;67261;53.132;18.006;2023-07-13T13:54:19;5.40;;;2.70;;
77004;SDS011;67261;53.132;18.006;2023-07-13T13:56:47;3.90;;;2.30;;
77004;SDS011;67261;53.132;18.006;2023-07-13T13:59:15;5.80;;;2.50;;
77004;SDS011;67261;53.132;18.006;2023-07-13T14:01:42;4.60;;;2.30;;
77004;SDS011;67261;53.132;18.006;2023-07-13T14:04:20;4.80;;;2.50;;
77004;SDS011;67261;53.132;18.006;2023-07-13T14:06:48;5.30;;;2.80;;
77004;SDS011;67261;53.132;18.006;2023-07-13T14:09:16;4.60;;;2.60;;
77004;SDS011;67261;53.132;18.006;2023-07-13T14:11:47;5.70;;;2.80;;
77004;SDS011;67261;53.132;18.006;2023-07-13T14:14:21;4.90;;;2.60;;
77004;SDS011;67261;53.132;18.006;2023-07-13T14:16:50;6.30;;;2.70;;
77004;SDS011;67261;53.132;18.006;2023-07-13T14:19:25;4.90;;;2.30;;
77004;SDS011;67261;53.132;18.006;2023-07-13T14:21:53;4.50;;;2.50;;
77004;SDS011;67261;53.132;18.006;2023-07-13T14:24:20;5.20;;;2.80;;
77004;SDS011;67261;53.132;18.006;2023-07-13T14:26:47;6.10;;;2.30;;
77004;SDS011;67261;53.132;18.006;2023-07-13T14:31:42;9.10;;;3.40;;
77004;SDS011;67261;53.132;18.006;2023-07-13T14:34:10;5.20;;;2.20;;
77004;SDS011;67261;53.132;18.006;2023-07-13T14:36:47;4.10;;;2.30;;
77004;SDS011;67261;53.132;18.006;2023-07-13T14:39:16;6.10;;;2.50;;
77004;SDS011;67261;53.132;18.006;2023-07-13T14:41:45;5.50;;;2.90;;
77004;SDS011;67261;53.132;18.006;2023-07-13T14:44:29;4.10;;;2.30;;
77004;SDS011;67261;53.132;18.006;2023-07-13T14:46:58;3.80;;;1.80;;
77004;SDS011;67261;53.132;18.006;2023-07-13T14:49:37;4.90;;;1.60;;
77004;SDS011;67261;53.132;18.006;2023-07-13T14:52:26;4.50;;;1.70;;
77004;SDS011;67261;53.132;18.006;2023-07-13T14:54:52;4.00;;;1.60;;
77004;SDS011;67261;53.132;18.006;2023-07-13T14:57:19;3.50;;;1.50;;
77004;SDS011;67261;53.132;18.006;2023-07-13T14:59:49;5.30;;;1.70;;
77004;SDS011;67261;53.132;18.006;2023-07-13T15:02:27;6.80;;;1.60;;
77004;SDS011;67261;53.132;18.006;2023-07-13T15:05:01;5.20;;;1.60;;
77004;SDS011;67261;53.132;18.006;2023-07-13T15:07:31;3.50;;;1.40;;
77004;SDS011;67261;53.132;18.006;2023-07-13T15:11:47;3.40;;;1.40;;
77004;SDS011;67261;53.132;18.006;2023-07-13T15:14:15;3.20;;;1.30;;
77004;SDS011;67261;53.132;18.006;2023-07-13T15:22:57;4.60;;;1.30;;
77004;SDS011;67261;53.132;18.006;2023-07-13T15:25:26;4.00;;;1.50;;
77004;SDS011;67261;53.132;18.006;2023-07-13T15:27:55;4.80;;;1.40;;
77004;SDS011;67261;53.132;18.006;2023-07-13T15:30:31;4.30;;;1.40;;
77004;SDS011;67261;53.132;18.006;2023-07-13T15:35:58;4.00;;;1.50;;
77004;SDS011;67261;53.132;18.006;2023-07-13T15:38:38;3.20;;;1.30;;
77004;SDS011;67261;53.132;18.006;2023-07-13T15:41:25;3.20;;;1.30;;
77004;SDS011;67261;53.132;18.006;2023-07-13T15:43:56;4.50;;;1.80;;
77004;SDS011;67261;53.132;18.006;2023-07-13T15:53:25;5.10;;;1.70;;
77004;SDS011;67261;53.132;18.006;2023-07-13T15:56:22;5.30;;;1.50;;
77004;SDS011;67261;53.132;18.006;2023-07-13T15:58:56;3.60;;;1.70;;
77004;SDS011;67261;53.132;18.006;2023-07-13T16:01:24;4.20;;;1.80;;
77004;SDS011;67261;53.132;18.006;2023-07-13T16:03:56;4.70;;;1.90;;
77004;SDS011;67261;53.132;18.006;2023-07-13T16:06:26;3.90;;;1.80;;
77004;SDS011;67261;53.132;18.006;2023-07-13T16:08:58;3.50;;;1.30;;
77004;SDS011;67261;53.132;18.006;2023-07-13T16:11:36;4.80;;;1.70;;
77004;SDS011;67261;53.132;18.006;2023-07-13T16:14:11;5.60;;;1.60;;
77004;SDS011;67261;53.132;18.006;2023-07-13T16:16:41;3.30;;;1.40;;
77004;SDS011;67261;53.132;18.006;2023-07-13T16:19:09;3.80;;;1.10;;
77004;SDS011;67261;53.132;18.006;2023-07-13T16:21:43;4.50;;;1.60;;